METAR Data
IDs: Format: Raw Decoded Include TAF

Data at: 1712 UTC 18 Feb 2019

METAR for:KAWG (Washington Muni, IA, US)
Text:KAWG 181655Z AUTO 32007KT 10SM BKN016 M07/M09 A3042 RMK AO2
Temperature: -7.0°C ( 19°F)
Dewpoint: -9.0°C ( 16°F) [RH = 86%]
Pressure (altimeter):30.42 inches Hg (1030.2 mb)
Winds:from the NW (320 degrees) at 8 MPH (7 knots; 3.6 m/s)
Visibility:10 or more sm (16+ km)
Ceiling:1600 feet AGL
Clouds: broken clouds at 1600 feet AGL
QC Flag:automated observation with no human augmentation